sensor_id;sensor_type;location;lat;lon;timestamp;temperature;humidity
20204;DHT22;10261;49.010;12.034;2023-01-24T00:00:49;3.20;99.90
20204;DHT22;10261;49.010;12.034;2023-01-24T00:01:51;3.20;99.90
20204;DHT22;10261;49.010;12.034;2023-01-24T00:02:53;3.20;99.90
20204;DHT22;10261;49.010;12.034;2023-01-24T00:03:55;3.20;99.90
20204;DHT22;10261;49.010;12.034;2023-01-24T00:04:58;3.20;99.90
20204;DHT22;10261;49.010;12.034;2023-01-24T00:06:00;3.10;99.90
20204;DHT22;10261;49.010;12.034;2023-01-24T00:07:03;3.10;99.90
20204;DHT22;10261;49.010;12.034;2023-01-24T00:08:05;3.10;99.90
20204;DHT22;10261;49.010;12.034;2023-01-24T00:09:09;3.20;99.90
20204;DHT22;10261;49.010;12.034;2023-01-24T00:10:12;3.20;99.90
20204;DHT22;10261;49.010;12.034;2023-01-24T00:11:15;3.20;99.90
20204;DHT22;10261;49.010;12.034;2023-01-24T00:12:17;3.10;99.90
20204;DHT22;10261;49.010;12.034;2023-01-24T00:13:20;3.10;99.90
20204;DHT22;10261;49.010;12.034;2023-01-24T00:14:22;3.20;99.90
20204;DHT22;10261;49.010;12.034;2023-01-24T00:15:25;3.30;99.90
20204;DHT22;10261;49.010;12.034;2023-01-24T00:16:27;3.40;99.90
20204;DHT22;10261;49.010;12.034;2023-01-24T00:17:30;3.30;99.90
20204;DHT22;10261;49.010;12.034;2023-01-24T00:18:32;3.30;99.90
20204;DHT22;10261;49.010;12.034;2023-01-24T00:19:35;3.40;99.90
20204;DHT22;10261;49.010;12.034;2023-01-24T00:20:37;3.40;99.90
20204;DHT22;10261;49.010;12.034;2023-01-24T00:21:40;3.40;99.90
20204;DHT22;10261;49.010;12.034;2023-01-24T00:22:43;3.40;99.90
20204;DHT22;10261;49.010;12.034;2023-01-24T00:23:48;3.30;99.90
20204;DHT22;10261;49.010;12.034;2023-01-24T00:24:53;3.40;99.90
20204;DHT22;10261;49.010;12.034;2023-01-24T00:25:55;3.30;99.90
20204;DHT22;10261;49.010;12.034;2023-01-24T00:26:58;3.40;99.90
20204;DHT22;10261;49.010;12.034;2023-01-24T00:28:00;3.40;99.90
20204;DHT22;10261;49.010;12.034;2023-01-24T00:29:03;3.30;99.90
20204;DHT22;10261;49.010;12.034;2023-01-24T00:30:06;3.30;99.90
20204;DHT22;10261;49.010;12.034;2023-01-24T00:31:09;3.40;99.90
20204;DHT22;10261;49.010;12.034;2023-01-24T00:32:11;3.40;99.90
20204;DHT22;10261;49.010;12.034;2023-01-24T00:33:14;3.40;99.90
20204;DHT22;10261;49.010;12.034;2023-01-24T00:34:16;3.50;99.90
20204;DHT22;10261;49.010;12.034;2023-01-24T00:35:19;3.50;99.90
20204;DHT22;10261;49.010;12.034;2023-01-24T00:36:21;3.50;99.90
20204;DHT22;10261;49.010;12.034;2023-01-24T00:37:25;3.50;99.90
20204;DHT22;10261;49.010;12.034;2023-01-24T00:38:28;3.40;99.90
20204;DHT22;10261;49.010;12.034;2023-01-24T00:39:32;3.40;99.90
20204;DHT22;10261;49.010;12.034;2023-01-24T00:40:35;3.50;99.90
20204;DHT22;10261;49.010;12.034;2023-01-24T00:41:38;3.40;99.90
20204;DHT22;10261;49.010;12.034;2023-01-24T00:42:40;3.40;99.90
20204;DHT22;10261;49.010;12.034;2023-01-24T00:43:43;3.40;99.90
20204;DHT22;10261;49.010;12.034;2023-01-24T00:44:46;3.40;99.90
20204;DHT22;10261;49.010;12.034;2023-01-24T00:45:48;3.40;99.90
20204;DHT22;10261;49.010;12.034;2023-01-24T00:46:51;3.40;99.90
20204;DHT22;10261;49.010;12.034;2023-01-24T00:47:53;3.40;99.90
20204;DHT22;10261;49.010;12.034;2023-01-24T00:48:56;3.50;99.90
20204;DHT22;10261;49.010;12.034;2023-01-24T00:49:58;3.40;99.90
20204;DHT22;10261;49.010;12.034;2023-01-24T00:51:01;3.40;99.90
20204;DHT22;10261;49.010;12.034;2023-01-24T00:52:04;3.30;99.90
20204;DHT22;10261;49.010;12.034;2023-01-24T00:53:07;3.30;99.90
20204;DHT22;10261;49.010;12.034;2023-01-24T00:54:09;3.30;99.90
20204;DHT22;10261;49.010;12.034;2023-01-24T00:55:12;3.40;99.90
20204;DHT22;10261;49.010;12.034;2023-01-24T00:56:15;3.40;99.90
20204;DHT22;10261;49.010;12.034;2023-01-24T00:57:18;3.40;99.90
20204;DHT22;10261;49.010;12.034;2023-01-24T00:58:20;3.50;99.90
20204;DHT22;10261;49.010;12.034;2023-01-24T00:59:23;3.40;99.90
20204;DHT22;10261;49.010;12.034;2023-01-24T01:00:26;3.40;99.90
20204;DHT22;10261;49.010;12.034;2023-01-24T01:01:28;3.40;99.90
20204;DHT22;10261;49.010;12.034;2023-01-24T01:02:31;3.40;99.90
20204;DHT22;10261;49.010;12.034;2023-01-24T01:03:34;3.40;99.90
20204;DHT22;10261;49.010;12.034;2023-01-24T01:04:37;3.40;99.90
20204;DHT22;10261;49.010;12.034;2023-01-24T01:05:39;3.40;99.90
20204;DHT22;10261;49.010;12.034;2023-01-24T01:06:43;3.40;99.90
20204;DHT22;10261;49.010;12.034;2023-01-24T01:07:50;3.40;99.90
20204;DHT22;10261;49.010;12.034;2023-01-24T01:08:53;3.40;99.90
20204;DHT22;10261;49.010;12.034;2023-01-24T01:09:56;3.40;99.90
20204;DHT22;10261;49.010;12.034;2023-01-24T01:10:59;3.40;99.90
20204;DHT22;10261;49.010;12.034;2023-01-24T01:12:03;3.40;99.90
20204;DHT22;10261;49.010;12.034;2023-01-24T01:13:05;3.40;99.90
20204;DHT22;10261;49.010;12.034;2023-01-24T01:14:09;3.30;99.90
20204;DHT22;10261;49.010;12.034;2023-01-24T01:15:11;3.40;99.90
20204;DHT22;10261;49.010;12.034;2023-01-24T01:16:16;3.40;99.90
20204;DHT22;10261;49.010;12.034;2023-01-24T01:17:20;3.40;99.90
20204;DHT22;10261;49.010;12.034;2023-01-24T01:18:22;3.40;99.90
20204;DHT22;10261;49.010;12.034;2023-01-24T01:19:25;3.40;99.90
20204;DHT22;10261;49.010;12.034;2023-01-24T01:20:27;3.40;99.90
20204;DHT22;10261;49.010;12.034;2023-01-24T01:21:30;3.40;99.90
20204;DHT22;10261;49.010;12.034;2023-01-24T01:22:32;3.40;99.90
20204;DHT22;10261;49.010;12.034;2023-01-24T01:23:35;3.40;99.90
20204;DHT22;10261;49.010;12.034;2023-01-24T01:24:37;3.40;99.90
20204;DHT22;10261;49.010;12.034;2023-01-24T01:25:40;3.40;99.90
20204;DHT22;10261;49.010;12.034;2023-01-24T01:26:42;3.40;99.90
20204;DHT22;10261;49.010;12.034;2023-01-24T01:27:46;3.40;99.90
20204;DHT22;10261;49.010;12.034;2023-01-24T01:28:49;3.40;99.90
20204;DHT22;10261;49.010;12.034;2023-01-24T01:29:52;3.40;99.90
20204;DHT22;10261;49.010;12.034;2023-01-24T01:30:55;3.40;99.90
20204;DHT22;10261;49.010;12.034;2023-01-24T01:31:58;3.50;99.90
20204;DHT22;10261;49.010;12.034;2023-01-24T01:33:00;3.40;99.90
20204;DHT22;10261;49.010;12.034;2023-01-24T01:34:03;3.40;99.90
20204;DHT22;10261;49.010;12.034;2023-01-24T01:35:06;3.40;99.90
20204;DHT22;10261;49.010;12.034;2023-01-24T01:36:09;3.40;99.90
20204;DHT22;10261;49.010;12.034;2023-01-24T01:37:11;3.50;99.90
20204;DHT22;10261;49.010;12.034;2023-01-24T01:38:14;3.50;99.90
20204;DHT22;10261;49.010;12.034;2023-01-24T01:39:15;3.50;99.90
20204;DHT22;10261;49.010;12.034;2023-01-24T01:40:19;3.50;99.90
20204;DHT22;10261;49.010;12.034;2023-01-24T01:41:21;3.50;99.90
20204;DHT22;10261;49.010;12.034;2023-01-24T01:42:23;3.50;99.90
20204;DHT22;10261;49.010;12.034;2023-01-24T01:43:28;3.50;99.90
20204;DHT22;10261;49.010;12.034;2023-01-24T01:44:31;3.60;99.90
20204;DHT22;10261;49.010;12.034;2023-01-24T01:45:41;3.50;99.90
20204;DHT22;10261;49.010;12.034;2023-01-24T01:46:47;3.50;99.90
20204;DHT22;10261;49.010;12.034;2023-01-24T01:47:51;3.40;99.90
20204;DHT22;10261;49.010;12.034;2023-01-24T01:48:57;3.60;99.90
20204;DHT22;10261;49.010;12.034;2023-01-24T01:50:06;3.50;99.90
20204;DHT22;10261;49.010;12.034;2023-01-24T01:51:14;3.50;99.90
20204;DHT22;10261;49.010;12.034;2023-01-24T01:52:19;3.50;99.90
20204;DHT22;10261;49.010;12.034;2023-01-24T01:53:22;3.60;99.90
20204;DHT22;10261;49.010;12.034;2023-01-24T01:54:29;3.50;99.90
20204;DHT22;10261;49.010;12.034;2023-01-24T01:55:33;3.60;99.90
20204;DHT22;10261;49.010;12.034;2023-01-24T01:56:41;3.60;99.90
20204;DHT22;10261;49.010;12.034;2023-01-24T01:57:47;3.50;99.90
20204;DHT22;10261;49.010;12.034;2023-01-24T01:58:54;3.60;99.90
20204;DHT22;10261;49.010;12.034;2023-01-24T02:00:00;3.50;99.90
20204;DHT22;10261;49.010;12.034;2023-01-24T02:01:04;3.50;99.90
20204;DHT22;10261;49.010;12.034;2023-01-24T02:02:07;3.50;99.90
20204;DHT22;10261;49.010;12.034;2023-01-24T02:03:14;3.50;99.90
20204;DHT22;10261;49.010;12.034;2023-01-24T02:04:33;3.50;99.90
20204;DHT22;10261;49.010;12.034;2023-01-24T02:05:37;3.50;99.90
20204;DHT22;10261;49.010;12.034;2023-01-24T02:06:46;3.50;99.90
20204;DHT22;10261;49.010;12.034;2023-01-24T02:07:55;3.50;99.90
20204;DHT22;10261;49.010;12.034;2023-01-24T02:09:00;3.50;99.90
20204;DHT22;10261;49.010;12.034;2023-01-24T02:10:04;3.50;99.90
20204;DHT22;10261;49.010;12.034;2023-01-24T02:11:08;3.60;99.90
20204;DHT22;10261;49.010;12.034;2023-01-24T02:12:33;3.50;99.90
20204;DHT22;10261;49.010;12.034;2023-01-24T02:13:40;3.50;99.90
20204;DHT22;10261;49.010;12.034;2023-01-24T02:14:47;3.50;99.90
20204;DHT22;10261;49.010;12.034;2023-01-24T02:16:09;3.50;99.90
20204;DHT22;10261;49.010;12.034;2023-01-24T02:17:11;3.50;99.90
20204;DHT22;10261;49.010;12.034;2023-01-24T02:18:14;3.50;99.90
20204;DHT22;10261;49.010;12.034;2023-01-24T02:20:46;3.50;99.90
20204;DHT22;10261;49.010;12.034;2023-01-24T02:21:53;3.50;99.90
20204;DHT22;10261;49.010;12.034;2023-01-24T02:23:04;3.50;99.90
20204;DHT22;10261;49.010;12.034;2023-01-24T02:24:16;3.50;99.90
20204;DHT22;10261;49.010;12.034;2023-01-24T02:25:24;3.60;99.90
20204;DHT22;10261;49.010;12.034;2023-01-24T02:26:30;3.50;99.90
20204;DHT22;10261;49.010;12.034;2023-01-24T02:27:32;3.50;99.90
20204;DHT22;10261;49.010;12.034;2023-01-24T02:28:36;3.50;99.90
20204;DHT22;10261;49.010;12.034;2023-01-24T02:29:39;3.50;99.90
20204;DHT22;10261;49.010;12.034;2023-01-24T02:30:42;3.60;99.90
20204;DHT22;10261;49.010;12.034;2023-01-24T02:31:57;3.60;99.90
20204;DHT22;10261;49.010;12.034;2023-01-24T02:33:03;3.60;99.90
20204;DHT22;10261;49.010;12.034;2023-01-24T02:34:10;3.50;99.90
20204;DHT22;10261;49.010;12.034;2023-01-24T02:35:26;3.60;99.90
20204;DHT22;10261;49.010;12.034;2023-01-24T02:36:33;3.50;99.90
20204;DHT22;10261;49.010;12.034;2023-01-24T02:37:37;3.40;99.90
20204;DHT22;10261;49.010;12.034;2023-01-24T02:38:41;3.50;99.90
20204;DHT22;10261;49.010;12.034;2023-01-24T02:39:49;3.50;99.90
20204;DHT22;10261;49.010;12.034;2023-01-24T02:40:54;3.50;99.90
20204;DHT22;10261;49.010;12.034;2023-01-24T02:42:02;3.50;99.90
20204;DHT22;10261;49.010;12.034;2023-01-24T02:43:06;3.50;99.90
20204;DHT22;10261;49.010;12.034;2023-01-24T02:44:13;3.50;99.90
20204;DHT22;10261;49.010;12.034;2023-01-24T02:45:20;3.50;99.90
20204;DHT22;10261;49.010;12.034;2023-01-24T02:46:23;3.50;99.90
20204;DHT22;10261;49.010;12.034;2023-01-24T02:47:29;3.50;99.90
20204;DHT22;10261;49.010;12.034;2023-01-24T02:48:34;3.50;99.90
20204;DHT22;10261;49.010;12.034;2023-01-24T02:49:37;3.50;99.90
20204;DHT22;10261;49.010;12.034;2023-01-24T02:50:39;3.50;99.90
20204;DHT22;10261;49.010;12.034;2023-01-24T02:51:59;3.50;99.90
20204;DHT22;10261;49.010;12.034;2023-01-24T02:53:20;3.40;99.90
20204;DHT22;10261;49.010;12.034;2023-01-24T02:54:33;3.50;99.90
20204;DHT22;10261;49.010;12.034;2023-01-24T02:55:35;3.50;99.90
20204;DHT22;10261;49.010;12.034;2023-01-24T02:57:01;3.60;99.90
20204;DHT22;10261;49.010;12.034;2023-01-24T02:58:22;3.50;99.90
20204;DHT22;10261;49.010;12.034;2023-01-24T02:59:23;3.50;99.90
20204;DHT22;10261;49.010;12.034;2023-01-24T03:00:27;3.50;99.90
20204;DHT22;10261;49.010;12.034;2023-01-24T03:01:30;3.50;99.90
20204;DHT22;10261;49.010;12.034;2023-01-24T03:02:33;3.50;99.90
20204;DHT22;10261;49.010;12.034;2023-01-24T03:03:36;3.40;99.90
20204;DHT22;10261;49.010;12.034;2023-01-24T03:04:38;3.50;99.90
20204;DHT22;10261;49.010;12.034;2023-01-24T03:05:41;3.40;99.90
20204;DHT22;10261;49.010;12.034;2023-01-24T03:06:58;3.40;99.90
20204;DHT22;10261;49.010;12.034;2023-01-24T03:08:01;3.40;99.90
20204;DHT22;10261;49.010;12.034;2023-01-24T03:09:03;3.40;99.90
20204;DHT22;10261;49.010;12.034;2023-01-24T03:10:19;3.40;99.90
20204;DHT22;10261;49.010;12.034;2023-01-24T03:11:21;3.40;99.90
20204;DHT22;10261;49.010;12.034;2023-01-24T03:12:26;3.40;99.90
20204;DHT22;10261;49.010;12.034;2023-01-24T03:13:46;3.40;99.90
20204;DHT22;10261;49.010;12.034;2023-01-24T03:15:08;3.40;99.90
20204;DHT22;10261;49.010;12.034;2023-01-24T03:16:28;3.40;99.90
20204;DHT22;10261;49.010;12.034;2023-01-24T03:17:49;3.40;99.90
20204;DHT22;10261;49.010;12.034;2023-01-24T03:19:09;3.30;99.90
20204;DHT22;10261;49.010;12.034;2023-01-24T03:20:29;3.20;99.90
20204;DHT22;10261;49.010;12.034;2023-01-24T03:21:50;3.20;99.90
20204;DHT22;10261;49.010;12.034;2023-01-24T03:23:11;3.20;99.90
20204;DHT22;10261;49.010;12.034;2023-01-24T03:24:31;3.20;99.90
20204;DHT22;10261;49.010;12.034;2023-01-24T03:25:53;3.20;99.90
20204;DHT22;10261;49.010;12.034;2023-01-24T03:27:15;3.20;99.90
20204;DHT22;10261;49.010;12.034;2023-01-24T03:28:37;3.20;99.90
20204;DHT22;10261;49.010;12.034;2023-01-24T03:29:57;3.10;99.90
20204;DHT22;10261;49.010;12.034;2023-01-24T03:31:18;3.10;99.90
20204;DHT22;10261;49.010;12.034;2023-01-24T03:32:38;3.10;99.90
20204;DHT22;10261;49.010;12.034;2023-01-24T03:33:59;3.00;99.90
20204;DHT22;10261;49.010;12.034;2023-01-24T03:35:20;3.20;99.90
20204;DHT22;10261;49.010;12.034;2023-01-24T03:36:23;3.20;99.90
20204;DHT22;10261;49.010;12.034;2023-01-24T03:37:33;2.10;99.90
20204;DHT22;10261;49.010;12.034;2023-01-24T03:38:53;3.10;99.90
20204;DHT22;10261;49.010;12.034;2023-01-24T03:40:15;3.10;99.90
20204;DHT22;10261;49.010;12.034;2023-01-24T03:41:18;3.10;99.90
20204;DHT22;10261;49.010;12.034;2023-01-24T03:42:20;3.00;99.90
20204;DHT22;10261;49.010;12.034;2023-01-24T03:43:23;3.00;99.90
20204;DHT22;10261;49.010;12.034;2023-01-24T03:44:26;3.00;99.90
20204;DHT22;10261;49.010;12.034;2023-01-24T03:45:31;3.00;99.90
20204;DHT22;10261;49.010;12.034;2023-01-24T03:46:34;3.10;99.90
20204;DHT22;10261;49.010;12.034;2023-01-24T03:47:43;3.00;99.90
20204;DHT22;10261;49.010;12.034;2023-01-24T03:48:47;2.90;99.90
20204;DHT22;10261;49.010;12.034;2023-01-24T03:49:50;3.00;99.90
20204;DHT22;10261;49.010;12.034;2023-01-24T03:51:10;2.90;99.90
20204;DHT22;10261;49.010;12.034;2023-01-24T03:52:31;2.90;99.90
20204;DHT22;10261;49.010;12.034;2023-01-24T03:53:33;2.80;99.90
20204;DHT22;10261;49.010;12.034;2023-01-24T03:54:36;2.90;99.90
20204;DHT22;10261;49.010;12.034;2023-01-24T03:55:38;2.80;99.90
20204;DHT22;10261;49.010;12.034;2023-01-24T03:56:41;2.90;99.90
20204;DHT22;10261;49.010;12.034;2023-01-24T03:57:43;2.80;99.90
20204;DHT22;10261;49.010;12.034;2023-01-24T03:58:47;2.90;99.90
20204;DHT22;10261;49.010;12.034;2023-01-24T03:59:51;2.80;99.90
20204;DHT22;10261;49.010;12.034;2023-01-24T04:00:54;2.70;99.90
20204;DHT22;10261;49.010;12.034;2023-01-24T04:01:57;2.80;99.90
20204;DHT22;10261;49.010;12.034;2023-01-24T04:02:59;2.80;99.90
20204;DHT22;10261;49.010;12.034;2023-01-24T04:04:02;2.80;99.90
20204;DHT22;10261;49.010;12.034;2023-01-24T04:05:04;2.80;99.90
20204;DHT22;10261;49.010;12.034;2023-01-24T04:06:17;2.80;99.90
20204;DHT22;10261;49.010;12.034;2023-01-24T04:07:20;2.80;99.90
20204;DHT22;10261;49.010;12.034;2023-01-24T04:08:28;2.70;99.90
20204;DHT22;10261;49.010;12.034;2023-01-24T04:09:31;2.80;99.90
20204;DHT22;10261;49.010;12.034;2023-01-24T04:10:33;2.80;99.90
20204;DHT22;10261;49.010;12.034;2023-01-24T04:11:36;2.80;99.90
20204;DHT22;10261;49.010;12.034;2023-01-24T04:12:38;2.80;99.90
20204;DHT22;10261;49.010;12.034;2023-01-24T04:13:40;2.80;99.90
20204;DHT22;10261;49.010;12.034;2023-01-24T04:14:42;2.70;99.90
20204;DHT22;10261;49.010;12.034;2023-01-24T04:15:47;2.70;99.90
20204;DHT22;10261;49.010;12.034;2023-01-24T04:16:49;2.70;99.90
20204;DHT22;10261;49.010;12.034;2023-01-24T04:17:54;2.70;99.90
20204;DHT22;10261;49.010;12.034;2023-01-24T04:18:58;2.70;99.90
20204;DHT22;10261;49.010;12.034;2023-01-24T04:20:00;2.70;99.90
20204;DHT22;10261;49.010;12.034;2023-01-24T04:21:03;2.70;99.90
20204;DHT22;10261;49.010;12.034;2023-01-24T04:22:06;2.70;99.90
20204;DHT22;10261;49.010;12.034;2023-01-24T04:23:10;2.70;99.90
20204;DHT22;10261;49.010;12.034;2023-01-24T04:24:13;2.70;99.90
20204;DHT22;10261;49.010;12.034;2023-01-24T04:25:16;2.70;99.90
20204;DHT22;10261;49.010;12.034;2023-01-24T04:26:19;2.70;99.90
20204;DHT22;10261;49.010;12.034;2023-01-24T04:27:21;2.80;99.90
20204;DHT22;10261;49.010;12.034;2023-01-24T04:28:24;2.80;99.90
20204;DHT22;10261;49.010;12.034;2023-01-24T04:29:26;2.80;99.90
20204;DHT22;10261;49.010;12.034;2023-01-24T04:30:29;2.90;99.90
20204;DHT22;10261;49.010;12.034;2023-01-24T04:31:32;2.80;99.90
20204;DHT22;10261;49.010;12.034;2023-01-24T04:32:36;2.80;99.90
20204;DHT22;10261;49.010;12.034;2023-01-24T04:33:39;2.80;99.90
20204;DHT22;10261;49.010;12.034;2023-01-24T04:34:42;2.70;99.90
20204;DHT22;10261;49.010;12.034;2023-01-24T04:35:44;2.80;99.90
20204;DHT22;10261;49.010;12.034;2023-01-24T04:36:47;2.80;99.90
20204;DHT22;10261;49.010;12.034;2023-01-24T04:37:49;2.70;99.90
20204;DHT22;10261;49.010;12.034;2023-01-24T04:38:52;2.70;99.90
20204;DHT22;10261;49.010;12.034;2023-01-24T04:39:56;2.60;99.90
20204;DHT22;10261;49.010;12.034;2023-01-24T04:41:00;2.60;99.90
20204;DHT22;10261;49.010;12.034;2023-01-24T04:42:02;2.70;99.90
20204;DHT22;10261;49.010;12.034;2023-01-24T04:43:07;2.70;99.90
20204;DHT22;10261;49.010;12.034;2023-01-24T04:44:09;2.70;99.90
20204;DHT22;10261;49.010;12.034;2023-01-24T04:45:12;2.60;99.90
20204;DHT22;10261;49.010;12.034;2023-01-24T04:46:14;2.70;99.90
20204;DHT22;10261;49.010;12.034;2023-01-24T04:47:18;2.70;99.90
20204;DHT22;10261;49.010;12.034;2023-01-24T04:48:20;2.80;99.90
20204;DHT22;10261;49.010;12.034;2023-01-24T04:49:23;2.80;99.90
20204;DHT22;10261;49.010;12.034;2023-01-24T04:50:25;2.80;99.90
20204;DHT22;10261;49.010;12.034;2023-01-24T04:51:28;2.80;99.90
20204;DHT22;10261;49.010;12.034;2023-01-24T04:52:30;2.80;99.90
20204;DHT22;10261;49.010;12.034;2023-01-24T04:53:33;2.90;99.90
20204;DHT22;10261;49.010;12.034;2023-01-24T04:54:37;2.70;99.90
20204;DHT22;10261;49.010;12.034;2023-01-24T04:55:39;2.70;99.90
20204;DHT22;10261;49.010;12.034;2023-01-24T04:56:42;2.80;99.90
20204;DHT22;10261;49.010;12.034;2023-01-24T04:57:44;2.80;99.90
20204;DHT22;10261;49.010;12.034;2023-01-24T04:58:47;2.90;99.90
20204;DHT22;10261;49.010;12.034;2023-01-24T04:59:49;2.90;99.90
20204;DHT22;10261;49.010;12.034;2023-01-24T05:00:52;2.80;99.90
20204;DHT22;10261;49.010;12.034;2023-01-24T05:01:54;2.70;99.90
20204;DHT22;10261;49.010;12.034;2023-01-24T05:02:59;3.40;99.90
20204;DHT22;10261;49.010;12.034;2023-01-24T05:04:01;2.70;99.90
20204;DHT22;10261;49.010;12.034;2023-01-24T05:05:05;2.70;99.90
20204;DHT22;10261;49.010;12.034;2023-01-24T05:06:07;2.80;99.90
20204;DHT22;10261;49.010;12.034;2023-01-24T05:07:10;2.80;99.90
20204;DHT22;10261;49.010;12.034;2023-01-24T05:08:12;2.70;99.90
20204;DHT22;10261;49.010;12.034;2023-01-24T05:09:15;2.70;99.90
20204;DHT22;10261;49.010;12.034;2023-01-24T05:10:17;2.80;99.90
20204;DHT22;10261;49.010;12.034;2023-01-24T05:11:23;2.70;99.90
20204;DHT22;10261;49.010;12.034;2023-01-24T05:12:25;2.70;99.90
20204;DHT22;10261;49.010;12.034;2023-01-24T05:13:28;2.80;99.90
20204;DHT22;10261;49.010;12.034;2023-01-24T05:14:30;2.80;99.90
20204;DHT22;10261;49.010;12.034;2023-01-24T05:15:33;2.80;99.90
20204;DHT22;10261;49.010;12.034;2023-01-24T05:16:35;2.80;99.90
20204;DHT22;10261;49.010;12.034;2023-01-24T05:17:38;2.80;99.90
20204;DHT22;10261;49.010;12.034;2023-01-24T05:18:42;2.80;99.90
20204;DHT22;10261;49.010;12.034;2023-01-24T05:19:45;2.90;99.90
20204;DHT22;10261;49.010;12.034;2023-01-24T05:20:47;2.80;99.90
20204;DHT22;10261;49.010;12.034;2023-01-24T05:21:50;2.80;99.90
20204;DHT22;10261;49.010;12.034;2023-01-24T05:22:53;2.70;99.90
20204;DHT22;10261;49.010;12.034;2023-01-24T05:23:57;2.80;99.90
20204;DHT22;10261;49.010;12.034;2023-01-24T05:24:59;2.90;99.90
20204;DHT22;10261;49.010;12.034;2023-01-24T05:26:03;2.90;99.90
20204;DHT22;10261;49.010;12.034;2023-01-24T05:27:05;3.00;99.90
20204;DHT22;10261;49.010;12.034;2023-01-24T05:28:08;3.00;99.90
20204;DHT22;10261;49.010;12.034;2023-01-24T05:29:10;3.00;99.90
20204;DHT22;10261;49.010;12.034;2023-01-24T05:30:13;2.90;99.90
20204;DHT22;10261;49.010;12.034;2023-01-24T05:31:15;3.00;99.90
20204;DHT22;10261;49.010;12.034;2023-01-24T05:32:18;3.00;99.90
20204;DHT22;10261;49.010;12.034;2023-01-24T05:33:20;3.00;99.90
20204;DHT22;10261;49.010;12.034;2023-01-24T05:34:25;2.90;99.90
20204;DHT22;10261;49.010;12.034;2023-01-24T05:35:27;3.00;99.90
20204;DHT22;10261;49.010;12.034;2023-01-24T05:36:30;2.90;99.90
20204;DHT22;10261;49.010;12.034;2023-01-24T05:37:32;3.00;99.90
20204;DHT22;10261;49.010;12.034;2023-01-24T05:38:38;3.00;99.90
20204;DHT22;10261;49.010;12.034;2023-01-24T05:39:40;3.00;99.90
20204;DHT22;10261;49.010;12.034;2023-01-24T05:40:43;3.00;99.90
20204;DHT22;10261;49.010;12.034;2023-01-24T05:41:45;3.10;99.90
20204;DHT22;10261;49.010;12.034;2023-01-24T05:42:48;3.10;99.90
20204;DHT22;10261;49.010;12.034;2023-01-24T05:43:50;3.00;99.90
20204;DHT22;10261;49.010;12.034;2023-01-24T05:44:53;3.10;99.90
20204;DHT22;10261;49.010;12.034;2023-01-24T05:45:57;3.00;99.90
20204;DHT22;10261;49.010;12.034;2023-01-24T05:47:01;3.10;99.90
20204;DHT22;10261;49.010;12.034;2023-01-24T05:48:04;3.10;99.90
20204;DHT22;10261;49.010;12.034;2023-01-24T05:49:07;3.10;99.90
20204;DHT22;10261;49.010;12.034;2023-01-24T05:50:12;3.10;99.90
20204;DHT22;10261;49.010;12.034;2023-01-24T05:51:16;3.10;99.90
20204;DHT22;10261;49.010;12.034;2023-01-24T05:52:19;3.10;99.90
20204;DHT22;10261;49.010;12.034;2023-01-24T05:53:23;3.10;99.90
20204;DHT22;10261;49.010;12.034;2023-01-24T05:54:25;3.10;99.90
20204;DHT22;10261;49.010;12.034;2023-01-24T05:55:28;3.10;99.90
20204;DHT22;10261;49.010;12.034;2023-01-24T05:56:30;3.10;99.90
20204;DHT22;10261;49.010;12.034;2023-01-24T05:57:33;3.10;99.90
20204;DHT22;10261;49.010;12.034;2023-01-24T05:58:38;3.10;99.90
20204;DHT22;10261;49.010;12.034;2023-01-24T05:59:41;3.10;99.90
20204;DHT22;10261;49.010;12.034;2023-01-24T06:00:43;3.10;99.90
20204;DHT22;10261;49.010;12.034;2023-01-24T06:01:46;3.20;99.90
20204;DHT22;10261;49.010;12.034;2023-01-24T06:02:48;3.10;99.90
20204;DHT22;10261;49.010;12.034;2023-01-24T06:03:52;3.70;99.90
20204;DHT22;10261;49.010;12.034;2023-01-24T06:04:55;3.10;99.90
20204;DHT22;10261;49.010;12.034;2023-01-24T06:05:59;3.00;99.90
20204;DHT22;10261;49.010;12.034;2023-01-24T06:07:02;3.10;99.90
20204;DHT22;10261;49.010;12.034;2023-01-24T06:08:05;3.10;99.90
20204;DHT22;10261;49.010;12.034;2023-01-24T06:09:07;3.20;99.90
20204;DHT22;10261;49.010;12.034;2023-01-24T06:10:10;3.20;99.90
20204;DHT22;10261;49.010;12.034;2023-01-24T06:11:14;3.20;99.90
20204;DHT22;10261;49.010;12.034;2023-01-24T06:12:17;3.50;99.90
20204;DHT22;10261;49.010;12.034;2023-01-24T06:13:19;3.70;99.90
20204;DHT22;10261;49.010;12.034;2023-01-24T06:14:22;3.90;99.90
20204;DHT22;10261;49.010;12.034;2023-01-24T06:15:25;4.00;99.90
20204;DHT22;10261;49.010;12.034;2023-01-24T06:16:27;4.20;99.90
20204;DHT22;10261;49.010;12.034;2023-01-24T06:17:30;4.20;99.90
20204;DHT22;10261;49.010;12.034;2023-01-24T06:18:33;4.30;99.90
20204;DHT22;10261;49.010;12.034;2023-01-24T06:19:36;4.30;99.90
20204;DHT22;10261;49.010;12.034;2023-01-24T06:20:40;4.40;99.90
20204;DHT22;10261;49.010;12.034;2023-01-24T06:21:46;4.40;99.90
20204;DHT22;10261;49.010;12.034;2023-01-24T06:22:51;4.50;99.90
20204;DHT22;10261;49.010;12.034;2023-01-24T06:23:54;4.40;99.90
20204;DHT22;10261;49.010;12.034;2023-01-24T06:24:58;4.40;99.90
20204;DHT22;10261;49.010;12.034;2023-01-24T06:26:00;4.60;99.90
20204;DHT22;10261;49.010;12.034;2023-01-24T06:27:04;4.60;99.90
20204;DHT22;10261;49.010;12.034;2023-01-24T06:28:08;4.50;99.90
20204;DHT22;10261;49.010;12.034;2023-01-24T06:29:12;4.50;99.90
20204;DHT22;10261;49.010;12.034;2023-01-24T06:30:15;4.60;99.90
20204;DHT22;10261;49.010;12.034;2023-01-24T06:31:29;4.60;99.90
20204;DHT22;10261;49.010;12.034;2023-01-24T06:32:52;4.60;99.90
20204;DHT22;10261;49.010;12.034;2023-01-24T06:34:14;4.60;99.90
20204;DHT22;10261;49.010;12.034;2023-01-24T06:35:25;4.70;99.90
20204;DHT22;10261;49.010;12.034;2023-01-24T06:36:39;4.70;99.90
20204;DHT22;10261;49.010;12.034;2023-01-24T06:37:47;4.70;99.90
20204;DHT22;10261;49.010;12.034;2023-01-24T06:38:50;4.60;99.90
20204;DHT22;10261;49.010;12.034;2023-01-24T06:39:53;4.60;99.90
20204;DHT22;10261;49.010;12.034;2023-01-24T06:40:57;4.60;99.90
20204;DHT22;10261;49.010;12.034;2023-01-24T06:42:02;4.60;99.90
20204;DHT22;10261;49.010;12.034;2023-01-24T06:43:04;4.70;99.90
20204;DHT22;10261;49.010;12.034;2023-01-24T06:44:09;4.70;99.90
20204;DHT22;10261;49.010;12.034;2023-01-24T06:45:12;4.70;99.90
20204;DHT22;10261;49.010;12.034;2023-01-24T06:46:15;4.70;99.90
20204;DHT22;10261;49.010;12.034;2023-01-24T06:47:17;4.80;99.90
20204;DHT22;10261;49.010;12.034;2023-01-24T06:48:20;4.80;99.90
20204;DHT22;10261;49.010;12.034;2023-01-24T06:49:23;4.60;99.90
20204;DHT22;10261;49.010;12.034;2023-01-24T06:50:25;4.60;99.90
20204;DHT22;10261;49.010;12.034;2023-01-24T06:51:31;4.70;99.90
20204;DHT22;10261;49.010;12.034;2023-01-24T06:52:33;4.70;99.90